createdAt,value
2022-08-29T00:03:02.504Z,21.42
2022-08-29T00:08:30.460Z,21.38
2022-08-29T00:13:52.627Z,21.27
2022-08-29T00:19:14.450Z,21.36
2022-08-29T00:24:36.297Z,21.36
2022-08-29T00:29:58.139Z,21.30
2022-08-29T00:35:26.788Z,21.38
2022-08-29T00:40:53.964Z,21.39
2022-08-29T00:46:36.942Z,21.31
2022-08-29T00:52:03.819Z,21.38
2022-08-29T00:57:28.712Z,21.25
2022-08-29T01:02:50.537Z,21.29
2022-08-29T01:08:12.705Z,21.33
2022-08-29T01:13:38.808Z,21.30
2022-08-29T01:19:12.361Z,21.10
2022-08-29T01:24:47.691Z,21.20
2022-08-29T01:30:10.303Z,21.09
2022-08-29T01:35:32.173Z,21.08
2022-08-29T01:40:58.014Z,21.05
2022-08-29T01:46:27.671Z,21.07
2022-08-29T01:51:50.120Z,20.86
2022-08-29T01:57:13.384Z,20.98
2022-08-29T02:02:35.508Z,20.73
2022-08-29T02:07:58.617Z,20.83
2022-08-29T02:13:20.708Z,20.70
2022-08-29T02:18:43.187Z,20.83
2022-08-29T02:24:23.930Z,20.62
2022-08-29T02:29:47.116Z,20.60
2022-08-29T02:35:08.986Z,20.49
2022-08-29T02:40:32.873Z,20.75
2022-08-29T02:45:55.229Z,20.77
2022-08-29T02:51:26.175Z,20.77
2022-08-29T02:56:47.991Z,20.84
2022-08-29T03:02:09.904Z,20.79
2022-08-29T03:07:32.394Z,20.76
2022-08-29T03:12:54.952Z,20.94
2022-08-29T03:18:17.472Z,20.88
2022-08-29T03:23:39.316Z,21.01
2022-08-29T03:29:01.317Z,21.01
2022-08-29T03:34:23.125Z,20.76
2022-08-29T03:39:44.962Z,21.11
2022-08-29T03:45:11.689Z,21.21
2022-08-29T03:50:33.584Z,21.16
2022-08-29T03:55:55.405Z,21.21
2022-08-29T04:01:18.233Z,21.18
2022-08-29T04:06:40.062Z,21.19
2022-08-29T04:12:01.942Z,21.34
2022-08-29T04:17:23.770Z,21.33
2022-08-29T04:22:45.732Z,21.55
2022-08-29T04:28:11.005Z,21.38
2022-08-29T04:33:32.791Z,21.46
2022-08-29T04:38:54.708Z,21.48
2022-08-29T04:44:16.519Z,21.54
2022-08-29T04:49:38.366Z,21.61
2022-08-29T04:55:00.253Z,21.69
2022-08-29T05:00:25.878Z,21.65
2022-08-29T05:05:58.398Z,21.41
2022-08-29T05:11:22.528Z,21.42
2022-08-29T05:16:45.052Z,21.40
2022-08-29T05:22:06.885Z,21.46
2022-08-29T05:27:28.736Z,21.39
2022-08-29T05:32:50.753Z,21.43
2022-08-29T05:38:12.982Z,21.60
2022-08-29T05:43:35.604Z,21.63
2022-08-29T05:48:57.568Z,21.62
2022-08-29T05:54:19.417Z,21.41
2022-08-29T05:59:41.943Z,21.30
2022-08-29T06:05:04.172Z,21.40
2022-08-29T06:10:26.020Z,21.27
2022-08-29T06:15:47.865Z,21.36
2022-08-29T06:21:11.158Z,21.34
2022-08-29T06:26:33.298Z,21.78
2022-08-29T06:31:59.057Z,22.40
2022-08-29T06:37:20.864Z,22.87
2022-08-29T06:42:42.665Z,23.09
2022-08-29T06:48:04.580Z,23.02
2022-08-29T06:53:32.301Z,22.77
2022-08-29T06:58:54.599Z,22.93
2022-08-29T07:04:16.899Z,23.06
2022-08-29T07:09:42.582Z,22.36
2022-08-29T07:15:05.410Z,23.02
2022-08-29T07:20:27.224Z,23.54
2022-08-29T07:25:49.023Z,23.81
2022-08-29T07:31:11.032Z,23.60
2022-08-29T07:36:34.468Z,23.58
2022-08-29T07:41:56.646Z,23.41
2022-08-29T07:47:18.457Z,23.26
2022-08-29T07:52:40.789Z,23.25
2022-08-29T07:58:03.119Z,23.00
2022-08-29T08:03:25.140Z,23.11
2022-08-29T08:08:47.795Z,22.86
2022-08-29T08:14:10.653Z,23.19
2022-08-29T08:19:32.471Z,23.37
2022-08-29T08:24:54.839Z,24.96
2022-08-29T08:30:16.930Z,25.61
2022-08-29T08:35:42.047Z,25.09
2022-08-29T08:41:25.175Z,25.11
2022-08-29T08:46:53.635Z,25.52
2022-08-29T08:52:21.411Z,24.90
2022-08-29T08:57:50.216Z,24.32
2022-08-29T09:03:37.828Z,23.93
2022-08-29T09:09:17.691Z,24.91
2022-08-29T09:14:57.607Z,25.01
2022-08-29T09:20:24.765Z,24.70
2022-08-29T09:25:47.445Z,26.74
2022-08-29T09:31:33.611Z,27.25
2022-08-29T09:36:55.459Z,26.96
2022-08-29T09:42:21.222Z,26.63
2022-08-29T09:47:43.756Z,27.55
2022-08-29T09:53:10.069Z,27.06
2022-08-29T09:58:58.678Z,26.22
2022-08-29T10:04:38.662Z,28.25
2022-08-29T10:10:14.173Z,26.87
2022-08-29T10:15:51.338Z,26.33
2022-08-29T10:21:28.570Z,26.02
2022-08-29T10:27:14.315Z,27.22
2022-08-29T10:32:44.453Z,28.16
2022-08-29T10:38:19.684Z,27.25
2022-08-29T10:44:12.947Z,27.20
2022-08-29T10:49:54.737Z,27.42
2022-08-29T10:55:50.258Z,27.35
2022-08-29T11:01:19.746Z,27.52
2022-08-29T11:06:48.592Z,27.54
2022-08-29T11:12:19.647Z,27.61
2022-08-29T11:17:44.322Z,27.22
2022-08-29T11:23:12.606Z,27.29
2022-08-29T11:28:40.295Z,27.33
2022-08-29T11:34:22.468Z,26.99
2022-08-29T11:39:57.111Z,26.53
2022-08-29T11:45:28.345Z,26.67
2022-08-29T11:50:59.196Z,26.77
2022-08-29T11:56:27.884Z,27.11
2022-08-29T12:01:59.949Z,27.21
2022-08-29T12:07:33.194Z,26.86
2022-08-29T12:12:57.998Z,26.76
2022-08-29T12:18:19.751Z,26.35
2022-08-29T12:23:45.593Z,26.74
2022-08-29T12:29:15.643Z,26.03
2022-08-29T12:34:57.833Z,26.78
2022-08-29T12:40:45.938Z,26.87
2022-08-29T12:46:36.823Z,26.08
2022-08-29T12:52:04.709Z,26.22
2022-08-29T12:57:33.681Z,26.22
2022-08-29T13:03:05.593Z,26.24
2022-08-29T13:08:37.555Z,25.82
2022-08-29T13:14:12.307Z,25.83
2022-08-29T13:19:34.142Z,25.75
2022-08-29T13:25:06.941Z,25.81
2022-08-29T13:30:28.945Z,25.68
2022-08-29T13:35:50.816Z,25.66
2022-08-29T13:41:27.657Z,26.29
2022-08-29T13:46:51.518Z,26.30
2022-08-29T13:52:15.211Z,26.34
2022-08-29T13:57:40.175Z,25.73
2022-08-29T14:03:04.343Z,25.70
2022-08-29T14:08:26.892Z,26.01
2022-08-29T14:13:48.755Z,25.59
2022-08-29T14:19:10.581Z,25.72
2022-08-29T14:24:33.285Z,25.64
2022-08-29T14:29:55.141Z,25.36
2022-08-29T14:35:25.842Z,25.26
2022-08-29T14:40:48.793Z,25.20
2022-08-29T14:46:10.716Z,25.13
2022-08-29T14:51:32.626Z,25.36
2022-08-29T14:56:54.446Z,25.31
2022-08-29T15:02:17.172Z,25.29
2022-08-29T15:07:40.018Z,24.99
2022-08-29T15:13:02.209Z,24.71
2022-08-29T15:18:48.380Z,24.85
2022-08-29T15:24:06.105Z,24.98
2022-08-29T15:29:28.384Z,25.03
2022-08-29T15:34:50.782Z,24.87
2022-08-29T15:40:13.643Z,24.86
2022-08-29T15:45:35.961Z,24.76
2022-08-29T15:50:58.375Z,24.54
2022-08-29T15:56:20.192Z,24.51
2022-08-29T16:01:45.278Z,24.36
2022-08-29T16:07:07.127Z,24.31
2022-08-29T16:12:28.999Z,24.02
2022-08-29T16:17:53.226Z,24.06
2022-08-29T16:23:15.094Z,24.09
2022-08-29T16:28:36.962Z,23.84
2022-08-29T16:33:58.803Z,23.63
2022-08-29T16:39:20.657Z,23.60
2022-08-29T16:44:42.499Z,23.45
2022-08-29T16:50:06.287Z,23.37
2022-08-29T16:55:28.862Z,23.18
2022-08-29T17:00:50.698Z,23.08
2022-08-29T17:06:12.554Z,23.10
2022-08-29T17:11:37.187Z,22.91
2022-08-29T17:16:59.061Z,22.79
2022-08-29T17:22:20.960Z,22.75
2022-08-29T17:27:55.457Z,22.51
2022-08-29T17:33:26.256Z,22.50
2022-08-29T17:38:48.564Z,22.36
2022-08-29T17:44:11.026Z,22.25
2022-08-29T17:49:32.858Z,22.09
2022-08-29T17:54:54.741Z,22.03
2022-08-29T18:00:17.767Z,21.84
2022-08-29T18:05:39.676Z,21.70
2022-08-29T18:11:02.038Z,21.61
2022-08-29T18:16:23.892Z,21.64
2022-08-29T18:21:45.759Z,21.60
2022-08-29T18:27:07.597Z,21.50
2022-08-29T18:32:29.697Z,21.51
2022-08-29T18:37:59.154Z,21.36
2022-08-29T18:43:21.019Z,21.42
2022-08-29T18:48:42.923Z,21.37
2022-08-29T18:54:04.919Z,21.27
2022-08-29T18:59:26.852Z,21.45
2022-08-29T19:04:48.745Z,21.44
2022-08-29T19:10:11.840Z,21.39
2022-08-29T19:15:34.796Z,21.43
2022-08-29T19:21:03.908Z,21.16
2022-08-29T19:26:32.240Z,21.20
2022-08-29T19:31:54.121Z,21.24
2022-08-29T19:37:15.960Z,21.13
2022-08-29T19:42:38.897Z,21.03
2022-08-29T19:48:00.740Z,20.84
2022-08-29T19:53:26.614Z,20.72
2022-08-29T19:58:49.488Z,20.64
2022-08-29T20:04:12.646Z,20.73
2022-08-29T20:09:35.379Z,20.53
2022-08-29T20:14:57.211Z,20.48
2022-08-29T20:20:26.745Z,20.41
2022-08-29T20:25:48.589Z,20.22
2022-08-29T20:31:10.761Z,20.27
2022-08-29T20:36:32.641Z,20.19
2022-08-29T20:41:57.569Z,20.08
2022-08-29T20:47:20.696Z,19.99
2022-08-29T20:52:42.517Z,20.02
2022-08-29T20:58:04.381Z,19.90
2022-08-29T21:03:26.547Z,19.82
2022-08-29T21:08:48.542Z,19.76
2022-08-29T21:14:10.449Z,19.49
2022-08-29T21:19:32.881Z,19.50
2022-08-29T21:24:55.161Z,19.37
2022-08-29T21:30:16.988Z,19.40
2022-08-29T21:35:40.677Z,19.27
2022-08-29T21:41:02.869Z,19.18
2022-08-29T21:46:31.002Z,19.19
2022-08-29T21:51:53.040Z,19.03
2022-08-29T21:57:15.246Z,18.98
2022-08-29T22:02:37.112Z,19.05
2022-08-29T22:07:59.297Z,19.06
2022-08-29T22:13:21.103Z,18.92
2022-08-29T22:18:42.917Z,18.80
2022-08-29T22:24:05.534Z,18.86
2022-08-29T22:29:27.417Z,18.84
2022-08-29T22:34:49.251Z,18.81
2022-08-29T22:40:15.181Z,18.77
2022-08-29T22:45:37.059Z,18.58
2022-08-29T22:50:58.898Z,18.65
2022-08-29T22:56:20.704Z,18.65
2022-08-29T23:01:43.964Z,18.59
2022-08-29T23:07:07.051Z,18.50
2022-08-29T23:12:29.163Z,18.44
2022-08-29T23:17:51.057Z,18.37
2022-08-29T23:23:12.967Z,18.38
2022-08-29T23:28:34.817Z,18.32
2022-08-29T23:33:56.667Z,18.31
2022-08-29T23:39:18.569Z,18.29
2022-08-29T23:44:40.376Z,18.32
2022-08-29T23:50:03.192Z,18.29
2022-08-29T23:55:25.003Z,18.30
